Mc Cune, Kansas
Current Conditions -  °F | °C
As of 3:55 AM on Saturday 25 Oct 2014 (Local Time) from KPTS Reporting Station
Clear Clear  
Wind Chill: 62°   Ceiling: Unl
Heat Index: NA   Visibility: 10mi
Dew Point: 62°   Wind: 6mph
Humidity: NA   Direction: 220°SW
Pressure: 30.04"   Gusts: NA
Location:  37.3318°N, 95.0213°W
Report Text: KPTS 250855Z AUTO 22005KT 10SM CLR 16/17 A3004 RMK AO2 T01640166
Loading
Personal Weather Stations






























Interactive Weather Map
Tropical Storm Tracking
New forecast layout! Learn more

10-Day Weather Forecast

Advertisements
Track Severe Weather on mobile